Time;durP1;ratioP1;P1;durP2;ratioP2;P2;SDS_P1;SDS_P2;PMS_P1;PMS_P2;Temp;Humidity;BMP_temperature;BMP_pressure;BME280_temperature;BME280_humidity;BME280_pressure;Samples;Min_cycle;Max_cycle;Signal;HPM_P1;HPM_P2
2022/09/29 00:00:51;;;;;;;3.85;2.45;;;7.30;99.90;;;;;;4907713;29;20044;-83
2022/09/29 00:03:18;;;;;;;2.55;1.55;;;7.20;99.90;;;;;;4892627;28;20225;-88
2022/09/29 00:05:49;;;;;;;2.05;1.85;;;7.60;99.90;;;;;;4891999;29;20059;-79
2022/09/29 00:08:15;;;;;;;1.95;1.85;;;7.60;99.90;;;;;;4891860;28;20078;-84
2022/09/29 00:10:41;;;;;;;1.98;1.88;;;7.40;99.90;;;;;;4909510;28;20086;-82
2022/09/29 00:13:07;;;;;;;1.95;1.85;;;8.90;99.90;;;;;;4907439;28;20090;-79
2022/09/29 00:15:32;;;;;;;2.13;1.80;;;8.20;99.90;;;;;;4909206;28;20040;-85
2022/09/29 00:17:59;;;;;;;3.97;2.35;;;9.30;99.90;;;;;;4907830;29;20036;-81
2022/09/29 00:20:24;;;;;;;2.05;1.83;;;8.90;99.90;;;;;;4891037;28;20103;-86
2022/09/29 00:22:50;;;;;;;4.10;2.25;;;7.10;99.90;;;;;;4909283;28;20090;-81
2022/09/29 00:25:17;;;;;;;2.08;1.95;;;8.00;99.90;;;;;;4908512;28;20055;-85
2022/09/29 00:27:43;;;;;;;1.73;1.63;;;9.10;99.90;;;;;;4908569;28;20040;-84
2022/09/29 00:30:10;;;;;;;2.35;2.15;;;9.30;99.90;;;;;;4908129;29;20044;-81
2022/09/29 00:32:35;;;;;;;2.40;2.22;;;7.20;99.90;;;;;;4908534;28;20036;-80
2022/09/29 00:35:01;;;;;;;2.97;2.55;;;8.60;99.90;;;;;;4908494;28;20044;-81
2022/09/29 00:37:27;;;;;;;2.45;1.63;;;7.00;99.90;;;;;;4907365;28;20047;-78
2022/09/29 00:39:53;;;;;;;2.03;1.92;;;8.30;99.90;;;;;;4908948;28;20525;-78
2022/09/29 00:42:19;;;;;;;3.97;2.40;;;9.00;99.90;;;;;;4907230;28;20170;-83
2022/09/29 00:45:13;;;;;;;2.10;1.85;;;7.00;99.90;;;;;;4907433;29;20048;-79
2022/09/29 00:47:42;;;;;;;2.20;2.10;;;7.10;99.90;;;;;;4907602;28;20059;-81
2022/09/29 00:50:13;;;;;;;2.58;2.38;;;8.80;99.90;;;;;;4907891;29;20536;-80
2022/09/29 00:52:43;;;;;;;1.80;1.70;;;7.10;99.90;;;;;;4907323;29;20424;-81
2022/09/29 00:55:30;;;;;;;2.40;2.20;;;7.00;99.90;;;;;;4906578;28;20087;-84
2022/09/29 00:58:02;;;;;;;2.67;2.47;;;7.00;99.90;;;;;;4909120;28;20114;-78
2022/09/29 01:00:28;;;;;;;2.13;1.80;;;8.10;99.90;;;;;;4912224;28;20032;-81
2022/09/29 01:03:04;;;;;;;3.00;2.80;;;7.00;99.90;;;;;;4909762;28;20044;-80
2022/09/29 01:05:36;;;;;;;2.88;2.60;;;7.00;99.90;;;;;;4911638;28;20036;-84
2022/09/29 01:08:15;;;;;;;2.65;2.45;;;7.00;99.90;;;;;;4910356;29;20056;-82
2022/09/29 01:10:43;;;;;;;2.45;2.35;;;7.00;99.90;;;;;;4910349;29;20075;-85
2022/09/29 01:13:10;;;;;;;2.85;2.65;;;7.00;99.90;;;;;;4913500;28;20055;-86
2022/09/29 01:15:35;;;;;;;3.45;3.15;;;7.10;99.90;;;;;;4912775;28;20047;-86
2022/09/29 01:18:02;;;;;;;3.72;2.65;;;8.50;99.90;;;;;;4912686;29;20048;-85
2022/09/29 01:20:33;;;;;;;3.25;2.75;;;8.70;99.90;;;;;;4913212;28;20054;-82
2022/09/29 01:23:28;;;;;;;3.17;2.70;;;7.00;99.90;;;;;;4911912;29;20670;-84
2022/09/29 01:26:36;;;;;;;3.30;2.60;;;7.00;99.90;;;;;;4911222;28;20046;-82
2022/09/29 01:29:14;;;;;;;2.95;2.65;;;7.00;99.90;;;;;;4908609;28;20520;-82
2022/09/29 01:32:03;;;;;;;3.60;3.28;;;7.00;99.90;;;;;;4911036;28;20074;-87
2022/09/29 01:34:54;;;;;;;2.85;2.65;;;6.90;99.90;;;;;;4907270;29;20462;-86
2022/09/29 01:37:48;;;;;;;3.22;3.00;;;8.50;99.90;;;;;;4909430;29;20132;-84
2022/09/29 01:40:17;;;;;;;2.95;2.75;;;6.90;99.90;;;;;;4906308;28;20123;-81
2022/09/29 01:42:56;;;;;;;5.45;3.42;;;6.90;99.90;;;;;;4910116;28;20526;-86
2022/09/29 01:45:21;;;;;;;2.92;2.72;;;6.90;99.90;;;;;;4909486;29;20052;-83
2022/09/29 01:47:53;;;;;;;3.65;3.35;;;6.80;99.90;;;;;;4909330;28;20049;-88
2022/09/29 01:50:39;;;;;;;5.57;3.92;;;8.20;99.90;;;;;;4910223;29;20044;-83
2022/09/29 01:53:15;;;;;;;3.85;3.53;;;6.70;99.90;;;;;;4908513;28;20070;-88
2022/09/29 01:55:50;;;;;;;6.80;3.60;;;8.20;99.90;;;;;;4910788;28;20384;-85
2022/09/29 01:58:21;;;;;;;;;;;8.80;99.90;;;;;;4910415;29;20051;-88
2022/09/29 02:00:56;;;;;;;3.67;3.38;;;6.70;99.90;;;;;;4909084;28;19938;-89
2022/09/29 02:03:35;;;;;;;3.95;3.65;;;6.70;99.90;;;;;;4910052;28;20040;-87
2022/09/29 02:06:11;;;;;;;4.22;3.83;;;6.70;99.90;;;;;;4904476;29;20056;-88
2022/09/29 02:08:42;;;;;;;4.90;3.80;;;6.70;99.90;;;;;;4910741;28;20048;-89
2022/09/29 02:11:13;;;;;;;3.60;3.33;;;6.70;99.90;;;;;;4909590;28;20084;-86
2022/09/29 02:13:50;;;;;;;4.82;3.63;;;6.70;99.90;;;;;;4910329;28;20040;-88
2022/09/29 02:16:20;;;;;;;3.85;3.35;;;6.70;99.90;;;;;;4909576;29;20040;-84
2022/09/29 02:19:01;;;;;;;4.00;3.70;;;7.30;99.90;;;;;;4910587;29;20451;-82
2022/09/29 02:21:27;;;;;;;4.97;3.72;;;8.70;99.90;;;;;;4909892;29;20063;-87
2022/09/29 02:23:54;;;;;;;3.63;3.33;;;8.30;99.90;;;;;;4910360;28;20051;-78
2022/09/29 02:26:21;;;;;;;3.90;3.60;;;8.70;99.90;;;;;;4909438;29;20051;-85
2022/09/29 02:28:47;;;;;;;4.32;3.97;;;6.70;99.90;;;;;;4909648;28;20500;-80
2022/09/29 02:31:13;;;;;;;4.07;3.78;;;5.20;99.90;;;;;;4910337;28;20055;-85
2022/09/29 02:33:39;;;;;;;3.85;3.55;;;8.80;99.90;;;;;;4909794;29;20040;-86
2022/09/29 02:36:32;;;;;;;4.32;3.88;;;7.80;99.90;;;;;;4910175;29;20044;-86
2022/09/29 02:39:12;;;;;;;4.07;3.80;;;6.70;99.90;;;;;;4901670;29;20479;-87
2022/09/29 02:42:04;;;;;;;4.00;3.70;;;6.60;99.90;;;;;;4908395;28;20052;-84
2022/09/29 02:44:35;;;;;;;4.15;3.85;;;6.60;99.90;;;;;;4909581;28;20131;-84
2022/09/29 02:47:11;;;;;;;3.80;3.50;;;6.60;99.90;;;;;;4948566;28;20458;-82
2022/09/29 02:49:51;;;;;;;3.95;3.65;;;6.60;99.90;;;;;;4989215;28;20050;-88
2022/09/29 02:52:41;;;;;;;5.55;4.10;;;6.60;99.90;;;;;;4988507;28;20069;-80
2022/09/29 02:55:14;;;;;;;4.53;4.10;;;6.60;99.90;;;;;;4983417;28;20042;-81
2022/09/29 02:57:51;;;;;;;4.00;3.70;;;6.50;99.90;;;;;;4989898;28;20039;-87
2022/09/29 03:00:18;;;;;;;3.75;3.45;;;6.50;99.90;;;;;;4988556;28;20220;-84
2022/09/29 03:02:44;;;;;;;3.97;3.67;;;6.50;99.90;;;;;;4989380;28;20077;-81
2022/09/29 03:05:15;;;;;;;4.57;4.18;;;6.70;99.90;;;;;;4990419;28;20128;-82
2022/09/29 03:07:42;;;;;;;4.70;4.30;;;6.50;99.90;;;;;;4990326;28;20038;-78
2022/09/29 03:10:09;;;;;;;3.85;3.55;;;7.70;99.90;;;;;;4989631;28;20085;-82
2022/09/29 03:12:36;;;;;;;4.28;3.97;;;6.50;99.90;;;;;;4989780;28;20030;-85
2022/09/29 03:15:03;;;;;;;4.13;3.83;;;8.40;99.90;;;;;;4989219;28;20034;-82
2022/09/29 03:17:30;;;;;;;4.45;4.07;;;6.40;99.90;;;;;;4985482;28;20126;-82
2022/09/29 03:19:56;;;;;;;5.28;3.97;;;8.30;99.90;;;;;;4981387;28;20501;-84
2022/09/29 03:22:23;;;;;;;4.05;3.80;;;8.00;99.90;;;;;;4989743;28;20042;-88
2022/09/29 03:24:49;;;;;;;5.88;4.20;;;6.40;99.90;;;;;;4990126;28;20502;-88
2022/09/29 03:27:14;;;;;;;3.80;3.50;;;6.30;99.90;;;;;;4991460;28;20077;-86
2022/09/29 03:29:40;;;;;;;4.15;3.80;;;8.20;99.90;;;;;;4992587;28;20125;-86
2022/09/29 03:32:06;;;;;;;4.47;4.00;;;6.40;99.90;;;;;;4991290;28;20084;-86
2022/09/29 03:34:33;;;;;;;4.75;4.28;;;6.20;99.90;;;;;;4989523;28;20042;-82
2022/09/29 03:37:06;;;;;;;4.55;4.25;;;6.20;99.90;;;;;;4989348;28;20049;-77
2022/09/29 03:39:32;;;;;;;4.13;3.72;;;6.20;99.90;;;;;;4988245;28;20105;-85
2022/09/29 03:41:58;;;;;;;4.13;3.55;;;6.70;99.90;;;;;;4988185;28;20038;-83
2022/09/29 03:44:23;;;;;;;4.03;3.72;;;5.60;99.90;;;;;;4988389;28;20046;-79
2022/09/29 03:46:49;;;;;;;5.22;3.58;;;8.30;99.90;;;;;;4974261;28;20042;-80
2022/09/29 03:49:15;;;;;;;4.03;3.63;;;8.10;99.90;;;;;;4988157;28;20117;-86
2022/09/29 03:51:41;;;;;;;3.80;3.50;;;7.80;99.90;;;;;;4988662;28;20038;-88
2022/09/29 03:54:06;;;;;;;4.07;3.78;;;6.30;99.90;;;;;;4989062;28;20038;-87
2022/09/29 03:56:33;;;;;;;3.97;3.67;;;6.30;99.90;;;;;;4971658;28;20073;-87
2022/09/29 03:58:58;;;;;;;3.88;3.50;;;6.00;99.90;;;;;;4963398;28;20034;-86
2022/09/29 04:01:24;;;;;;;4.45;4.15;;;6.20;99.90;;;;;;4987745;28;20096;-86
2022/09/29 04:03:50;;;;;;;4.15;3.75;;;7.40;99.90;;;;;;4987935;28;20038;-87
2022/09/29 04:06:15;;;;;;;3.90;3.47;;;6.20;99.90;;;;;;4986905;28;20339;-83
2022/09/29 04:08:41;;;;;;;4.20;3.90;;;6.10;99.90;;;;;;4972183;28;20152;-86
2022/09/29 04:11:07;;;;;;;3.50;3.20;;;6.20;99.90;;;;;;4971837;28;20042;-85
2022/09/29 04:13:33;;;;;;;4.10;3.80;;;8.10;99.90;;;;;;4971188;28;20482;-79
2022/09/29 04:16:00;;;;;;;3.78;3.53;;;4.80;99.90;;;;;;4987676;28;20034;-87
2022/09/29 04:18:26;;;;;;;3.67;3.38;;;7.70;99.90;;;;;;4989658;28;20041;-86
2022/09/29 04:20:53;;;;;;;4.03;3.67;;;6.10;99.90;;;;;;4971276;28;20038;-88
2022/09/29 04:23:19;;;;;;;3.25;3.05;;;6.20;99.90;;;;;;4988248;28;20132;-85
2022/09/29 04:25:45;;;;;;;3.88;3.58;;;6.10;99.90;;;;;;4987874;28;20085;-82
2022/09/29 04:28:12;;;;;;;3.83;3.53;;;8.10;99.90;;;;;;4987753;28;20035;-87
2022/09/29 04:30:38;;;;;;;3.85;3.55;;;8.20;99.90;;;;;;4955999;28;20058;-86
2022/09/29 04:33:03;;;;;;;5.45;3.97;;;6.10;99.90;;;;;;4992033;28;20038;-82
2022/09/29 04:35:29;;;;;;;3.90;3.60;;;7.80;99.90;;;;;;4990477;28;20042;-79
2022/09/29 04:37:58;;;;;;;7.35;3.65;;;8.10;99.90;;;;;;4975619;28;20104;-82
2022/09/29 04:40:25;;;;;;;5.00;4.50;;;7.80;99.90;;;;;;4990605;28;20181;-86
2022/09/29 04:42:50;;;;;;;4.80;4.40;;;6.00;99.90;;;;;;4975496;28;20038;-79
2022/09/29 04:45:25;;;;;;;4.57;4.20;;;7.70;99.90;;;;;;4992899;28;20104;-87
2022/09/29 04:47:50;;;;;;;;;;;5.80;99.90;;;;;;4991450;28;20121;-78
2022/09/29 04:50:16;;;;;;;4.93;4.53;;;5.70;99.90;;;;;;4992063;28;20029;-77
2022/09/29 04:52:42;;;;;;;5.90;5.00;;;5.80;99.90;;;;;;4998379;28;20035;-79
2022/09/29 04:55:10;;;;;;;5.65;5.20;;;5.90;99.90;;;;;;4990462;28;20034;-77
2022/09/29 04:57:37;;;;;;;6.18;5.50;;;5.80;99.90;;;;;;4992546;28;20046;-84
2022/09/29 05:00:04;;;;;;;6.22;5.63;;;5.90;99.90;;;;;;4967222;28;20081;-79
2022/09/29 05:02:30;;;;;;;6.13;5.63;;;5.80;99.90;;;;;;4990540;28;20054;-80
2022/09/29 05:04:56;;;;;;;6.07;5.03;;;5.80;99.90;;;;;;4990845;28;20062;-77
2022/09/29 05:07:21;;;;;;;5.55;5.15;;;5.80;99.90;;;;;;4991505;28;20469;-78
2022/09/29 05:09:47;;;;;;;5.95;5.45;;;5.80;99.90;;;;;;4991372;28;20142;-79
2022/09/29 05:12:13;;;;;;;6.88;6.18;;;4.20;99.90;;;;;;4974940;28;20046;-78
2022/09/29 05:14:39;;;;;;;5.15;4.72;;;5.40;99.90;;;;;;4992066;28;20053;-84
2022/09/29 05:17:04;;;;;;;6.20;5.53;;;5.70;99.90;;;;;;4993048;28;20042;-78
2022/09/29 05:19:33;;;;;;;7.80;5.60;;;8.00;99.90;;;;;;4974953;28;20093;-79
2022/09/29 05:21:59;;;;;;;5.35;4.85;;;5.80;99.90;;;;;;4974336;28;20065;-83
2022/09/29 05:24:26;;;;;;;8.15;5.68;;;5.80;99.90;;;;;;4989443;28;20050;-85
2022/09/29 05:26:52;;;;;;;6.55;5.80;;;5.80;99.90;;;;;;4992818;28;20042;-86
2022/09/29 05:29:18;;;;;;;7.50;5.47;;;6.30;99.90;;;;;;4990873;28;20383;-84
2022/09/29 05:31:44;;;;;;;5.95;5.38;;;5.80;99.90;;;;;;4991688;28;20097;-85
2022/09/29 05:34:10;;;;;;;5.05;4.63;;;5.70;99.90;;;;;;4977143;28;20474;-87
2022/09/29 05:36:36;;;;;;;5.30;4.90;;;5.70;99.90;;;;;;4996228;28;20513;-84
2022/09/29 05:39:01;;;;;;;6.28;5.13;;;7.70;99.90;;;;;;4995577;28;20054;-78
2022/09/29 05:41:27;;;;;;;5.75;5.25;;;5.70;99.90;;;;;;4980818;28;20069;-86
2022/09/29 05:43:54;;;;;;;5.55;5.05;;;8.10;99.90;;;;;;4993292;28;20051;-82
2022/09/29 05:46:21;;;;;;;6.35;5.75;;;5.30;99.90;;;;;;4991465;28;20129;-84
2022/09/29 05:48:48;;;;;;;7.00;6.30;;;7.90;99.90;;;;;;4990376;28;20438;-85
2022/09/29 05:51:16;;;;;;;7.03;6.35;;;7.20;99.90;;;;;;4973637;28;20054;-85
2022/09/29 05:53:42;;;;;;;6.25;5.75;;;5.70;99.90;;;;;;4973738;28;20050;-84
2022/09/29 05:56:10;;;;;;;6.10;5.60;;;7.70;99.90;;;;;;4976220;28;20069;-87
2022/09/29 05:58:37;;;;;;;6.07;5.53;;;5.70;99.90;;;;;;4985450;28;20048;-81
2022/09/29 06:01:11;;;;;;;7.57;5.85;;;7.90;99.90;;;;;;4990310;28;20100;-86
2022/09/29 06:03:37;;;;;;;6.28;5.68;;;7.40;99.90;;;;;;4973842;28;20062;-81
2022/09/29 06:06:15;;;;;;;6.55;5.95;;;5.70;99.90;;;;;;4991021;28;20054;-85
2022/09/29 06:08:42;;;;;;;5.97;5.43;;;7.60;99.90;;;;;;4990106;28;20130;-89
2022/09/29 06:11:09;;;;;;;7.43;6.03;;;5.70;99.90;;;;;;4973582;28;20434;-83
2022/09/29 06:13:40;;;;;;;6.90;6.30;;;6.30;99.90;;;;;;4972865;28;20089;-84
2022/09/29 06:16:06;;;;;;;6.97;6.28;;;7.90;99.90;;;;;;4989603;28;20125;-87
2022/09/29 06:18:32;;;;;;;13.80;11.20;;;5.70;99.90;;;;;;4990919;28;20038;-85
2022/09/29 06:21:05;;;;;;;9.63;7.90;;;5.80;99.90;;;;;;4989011;28;20101;-87
2022/09/29 06:23:31;;;;;;;7.38;6.72;;;7.90;99.90;;;;;;4989347;28;20054;-88
2022/09/29 06:25:58;;;;;;;7.30;5.78;;;6.10;99.90;;;;;;4988479;28;20855;-88
2022/09/29 06:28:24;;;;;;;6.75;6.07;;;6.90;99.90;;;;;;4989538;28;20066;-80
2022/09/29 06:30:50;;;;;;;8.03;6.37;;;7.70;99.90;;;;;;4287593;28;10000652;-85
2022/09/29 06:33:16;;;;;;;6.82;6.22;;;6.00;99.90;;;;;;4972840;28;20065;-84
2022/09/29 06:38:31;;;;;;;18.15;7.03;;;6.00;99.90;;;;;;4983659;28;20050;-92
2022/09/29 06:40:57;;;;;;;6.35;5.75;;;6.00;99.90;;;;;;4988922;28;20104;-90
2022/09/29 06:43:22;;;;;;;8.48;6.45;;;6.90;99.90;;;;;;4988471;28;20096;-92
2022/09/29 06:45:48;;;;;;;7.75;6.65;;;6.10;99.90;;;;;;4972078;28;20133;-87
2022/09/29 06:48:13;;;;;;;7.20;6.55;;;6.00;99.90;;;;;;4988216;28;20482;-87
2022/09/29 06:50:39;;;;;;;11.20;6.65;;;6.10;99.90;;;;;;4988324;28;20084;-88
2022/09/29 06:53:04;;;;;;;7.68;6.93;;;7.50;99.90;;;;;;4976742;28;20043;-89
2022/09/29 06:55:30;;;;;;;7.15;6.45;;;5.90;99.90;;;;;;4972867;28;20452;-83
2022/09/29 06:57:56;;;;;;;9.70;6.50;;;7.70;99.90;;;;;;4973018;28;20561;-81
2022/09/29 07:00:22;;;;;;;10.45;7.63;;;6.40;99.90;;;;;;4991285;28;20045;-83
2022/09/29 07:02:47;;;;;;;17.40;7.85;;;5.90;99.90;;;;;;4990231;28;20105;-84
2022/09/29 07:05:13;;;;;;;10.65;7.65;;;7.60;99.90;;;;;;4973053;28;20054;-84
2022/09/29 07:07:39;;;;;;;10.90;7.78;;;6.20;99.90;;;;;;4989822;28;20043;-79
2022/09/29 07:10:06;;;;;;;13.10;8.77;;;6.80;99.90;;;;;;4989748;28;20047;-80
2022/09/29 07:12:31;;;;;;;9.38;8.35;;;6.20;99.90;;;;;;4988669;28;20045;-78
2022/09/29 07:15:00;;;;;;;10.15;8.38;;;6.20;99.90;;;;;;4988977;28;20050;-78
2022/09/29 07:17:26;;;;;;;9.32;8.52;;;6.20;99.90;;;;;;4988923;28;20080;-79
2022/09/29 07:19:54;;;;;;;10.88;9.52;;;6.30;99.90;;;;;;4988293;28;20414;-81
2022/09/29 07:22:20;;;;;;;9.60;8.70;;;8.00;99.90;;;;;;4988100;28;20108;-79
2022/09/29 07:24:46;;;;;;;10.80;9.65;;;7.40;99.90;;;;;;4988085;28;20050;-78
2022/09/29 07:27:12;;;;;;;10.25;9.27;;;8.40;99.90;;;;;;4988340;28;20049;-77
2022/09/29 07:29:38;;;;;;;11.32;8.98;;;6.40;99.90;;;;;;4971597;28;20051;-78
2022/09/29 07:32:04;;;;;;;11.75;10.65;;;7.70;99.90;;;;;;4989785;28;20400;-81
2022/09/29 07:34:30;;;;;;;12.10;9.02;;;6.50;99.90;;;;;;4971389;28;20096;-83
2022/09/29 07:36:55;;;;;;;65.47;50.80;;;7.40;99.90;;;;;;4987604;28;20076;-77
2022/09/29 07:39:21;;;;;;;17.10;13.93;;;6.70;99.90;;;;;;4989845;28;20048;-83
2022/09/29 07:41:47;;;;;;;16.95;15.07;;;8.10;99.90;;;;;;4987769;28;20402;-83
2022/09/29 07:44:13;;;;;;;17.23;12.18;;;6.80;99.90;;;;;;4971080;28;20129;-78
2022/09/29 07:46:38;;;;;;;13.70;11.85;;;7.00;99.90;;;;;;4973434;28;20379;-85
2022/09/29 07:49:04;;;;;;;17.70;13.27;;;7.10;99.90;;;;;;4976977;28;20057;-82
2022/09/29 07:51:30;;;;;;;13.18;11.88;;;7.20;99.90;;;;;;4990137;28;20034;-78
2022/09/29 07:54:00;;;;;;;13.50;11.95;;;7.30;99.90;;;;;;4989105;28;20093;-76
2022/09/29 07:56:26;;;;;;;13.48;11.85;;;8.70;99.90;;;;;;4988056;28;20042;-77
2022/09/29 07:58:52;;;;;;;15.43;13.50;;;7.40;99.90;;;;;;4987586;28;20448;-75
2022/09/29 08:01:18;;;;;;;52.13;31.90;;;8.90;99.90;;;;;;4987969;28;20065;-76
2022/09/29 08:03:49;;;;;;;27.52;18.15;;;7.60;99.90;;;;;;4988669;28;20100;-75
2022/09/29 08:06:15;;;;;;;16.33;14.60;;;7.70;99.90;;;;;;4986863;28;20089;-75
2022/09/29 08:08:41;;;;;;;17.30;15.05;;;9.20;99.90;;;;;;4987932;28;20081;-74
2022/09/29 08:11:13;;;;;;;15.25;13.68;;;8.00;99.90;;;;;;4971075;28;20046;-77
2022/09/29 08:13:39;;;;;;;15.48;13.77;;;8.00;99.90;;;;;;4987411;28;20034;-76
2022/09/29 08:16:07;;;;;;;19.98;15.75;;;8.20;99.90;;;;;;4970950;28;20046;-74
2022/09/29 08:18:33;;;;;;;19.45;15.80;;;8.20;99.90;;;;;;4986815;28;20054;-81
2022/09/29 08:21:00;;;;;;;13.88;12.32;;;9.80;99.90;;;;;;4987026;28;20058;-73
2022/09/29 08:23:25;;;;;;;18.73;15.77;;;8.40;99.90;;;;;;4987734;28;20035;-73
2022/09/29 08:26:06;;;;;;;21.08;15.82;;;8.40;99.90;;;;;;4988341;28;20088;-75
2022/09/29 08:28:33;;;;;;;18.50;15.40;;;8.50;99.90;;;;;;4982624;28;20038;-76
2022/09/29 08:31:07;;;;;;;21.08;15.25;;;8.60;99.90;;;;;;4988491;28;20053;-80
2022/09/29 08:33:34;;;;;;;20.95;14.98;;;8.70;99.90;;;;;;4988252;28;20065;-73
2022/09/29 08:36:00;;;;;;;17.88;14.32;;;8.80;99.90;;;;;;4988466;28;20046;-77
2022/09/29 08:38:26;;;;;;;21.10;14.57;;;8.90;99.90;;;;;;4988893;28;20050;-75
2022/09/29 08:40:55;;;;;;;18.67;14.68;;;9.00;99.90;;;;;;4970909;28;20516;-75
2022/09/29 08:43:30;;;;;;;19.60;16.63;;;9.30;99.90;;;;;;4987766;28;20122;-72
2022/09/29 08:46:04;;;;;;;17.77;15.88;;;9.10;99.90;;;;;;4986950;28;20082;-75
2022/09/29 08:48:38;;;;;;;16.35;13.30;;;9.50;99.90;;;;;;4980905;28;20133;-77
2022/09/29 08:51:07;;;;;;;17.50;14.70;;;9.20;99.90;;;;;;4987313;28;20038;-73
2022/09/29 08:53:37;;;;;;;15.95;14.07;;;10.80;99.90;;;;;;4988169;28;20039;-74
2022/09/29 08:56:06;;;;;;;28.90;23.38;;;10.50;99.90;;;;;;4974574;28;20070;-81
2022/09/29 08:58:32;;;;;;;20.75;16.67;;;9.50;99.90;;;;;;4988704;28;20117;-78
2022/09/29 09:01:08;;;;;;;16.13;13.77;;;10.40;99.90;;;;;;4986325;28;20522;-83
2022/09/29 09:03:55;;;;;;;16.88;14.85;;;9.70;99.90;;;;;;4981543;28;20046;-81
2022/09/29 09:06:23;;;;;;;13.50;11.95;;;9.80;99.90;;;;;;4987365;28;20046;-82
2022/09/29 09:09:27;;;;;;;16.50;11.57;;;10.10;99.90;;;;;;4987047;28;20043;-79
2022/09/29 09:12:10;;;;;;;16.92;12.80;;;10.00;99.90;;;;;;4983231;28;20077;-73
2022/09/29 09:14:49;;;;;;;15.32;11.45;;;10.10;99.90;;;;;;4980646;28;20482;-79
2022/09/29 09:17:47;;;;;;;9.63;8.70;;;10.20;99.90;;;;;;4989440;28;20505;-77
2022/09/29 09:20:16;;;;;;;8.80;8.00;;;10.30;99.90;;;;;;4987884;28;20105;-79
2022/09/29 09:22:49;;;;;;;7.32;6.65;;;10.90;99.90;;;;;;4990509;28;20050;-77
2022/09/29 09:25:26;;;;;;;7.57;6.88;;;10.40;99.90;;;;;;4990107;28;20054;-77
2022/09/29 09:28:20;;;;;;;10.10;7.20;;;10.60;99.90;;;;;;4973878;28;20053;-77
2022/09/29 09:31:10;;;;;;;6.30;5.57;;;10.60;99.90;;;;;;4971473;28;20398;-76
2022/09/29 09:33:42;;;;;;;4.95;4.38;;;10.70;99.90;;;;;;4983583;28;20034;-75
2022/09/29 09:36:32;;;;;;;5.70;3.90;;;12.00;99.90;;;;;;4991856;28;20060;-84
2022/09/29 09:39:32;;;;;;;8.55;6.97;;;10.90;99.90;;;;;;4990261;28;20042;-81
2022/09/29 09:42:02;;;;;;;5.85;4.22;;;10.90;99.90;;;;;;4985073;28;20069;-85
2022/09/29 09:45:14;;;;;;;6.70;5.00;;;11.20;99.90;;;;;;4989665;28;20394;-82
2022/09/29 09:47:49;;;;;;;4.15;3.67;;;11.10;99.90;;;;;;4986518;28;20050;-83
2022/09/29 09:50:19;;;;;;;4.72;4.25;;;12.30;99.90;;;;;;4973781;28;20043;-81
2022/09/29 09:53:30;;;;;;;5.30;4.30;;;12.30;99.90;;;;;;4973824;28;20405;-82
2022/09/29 09:56:52;;;;;;;3.95;3.65;;;11.30;99.90;;;;;;4952149;28;20051;-87
2022/09/29 09:59:42;;;;;;;5.43;3.88;;;11.40;99.90;;;;;;4913172;29;20046;-82
2022/09/29 10:02:19;;;;;;;6.75;3.88;;;11.40;99.90;;;;;;4914311;29;20499;-80
2022/09/29 10:04:49;;;;;;;3.78;3.45;;;11.50;99.90;;;;;;4979950;28;20524;-83
2022/09/29 10:07:19;;;;;;;7.55;3.38;;;12.00;99.90;;;;;;4989659;28;20454;-86
2022/09/29 10:09:46;;;;;;;3.83;3.40;;;12.30;99.90;;;;;;4973090;28;20046;-86
2022/09/29 10:12:23;;;;;;;4.47;3.50;;;12.40;99.90;;;;;;4989732;28;20422;-83
2022/09/29 10:14:58;;;;;;;5.85;3.90;;;12.70;99.90;;;;;;4989884;28;20050;-85
2022/09/29 10:17:30;;;;;;;3.65;3.35;;;11.80;99.90;;;;;;4989112;28;20085;-82
2022/09/29 10:19:58;;;;;;;4.80;3.05;;;11.90;99.90;;;;;;4973965;28;20153;-85
2022/09/29 10:22:25;;;;;;;6.22;2.63;;;13.20;99.90;;;;;;4989117;28;20053;-79
2022/09/29 10:24:55;;;;;;;4.07;2.67;;;13.20;99.90;;;;;;4972477;28;20552;-83
2022/09/29 10:27:25;;;;;;;2.85;2.65;;;12.00;99.90;;;;;;4973502;28;20474;-87
2022/09/29 10:29:51;;;;;;;2.60;2.40;;;12.10;99.90;;;;;;4988506;28;20077;-81
2022/09/29 10:32:37;;;;;;;3.03;2.40;;;13.30;99.90;;;;;;4990079;28;20121;-81
2022/09/29 10:35:20;;;;;;;3.97;3.05;;;12.50;99.90;;;;;;4989057;28;20057;-79
2022/09/29 10:37:50;;;;;;;3.58;2.90;;;12.20;99.90;;;;;;4965790;28;20561;-80
2022/09/29 10:40:20;;;;;;;4.93;3.03;;;13.60;99.90;;;;;;4987786;28;20034;-82
2022/09/29 10:42:49;;;;;;;1.80;1.70;;;12.50;99.90;;;;;;4989326;28;20444;-80
2022/09/29 10:45:17;;;;;;;5.25;4.40;;;12.50;99.90;;;;;;4988055;28;20038;-82
2022/09/29 10:48:08;;;;;;;3.95;3.55;;;12.60;99.90;;;;;;4989189;28;20110;-80
2022/09/29 10:50:48;;;;;;;3.03;2.20;;;12.80;99.90;;;;;;4991919;28;20410;-85
2022/09/29 10:53:32;;;;;;;1.67;1.58;;;12.90;99.90;;;;;;4988141;28;20046;-84
2022/09/29 10:56:04;;;;;;;1.85;1.67;;;13.00;99.90;;;;;;4972910;28;20093;-83
2022/09/29 10:58:35;;;;;;;1.60;1.50;;;13.20;99.90;;;;;;4988216;28;20473;-84
2022/09/29 11:01:11;;;;;;;1.88;1.55;;;13.20;99.90;;;;;;4990045;28;20375;-77
2022/09/29 11:03:48;;;;;;;1.52;1.42;;;13.40;99.90;;;;;;4988426;28;20482;-80
2022/09/29 11:06:15;;;;;;;1.33;1.23;;;13.50;99.90;;;;;;4972368;28;20053;-82
2022/09/29 11:08:57;;;;;;;1.60;1.50;;;14.80;99.90;;;;;;4985453;28;20479;-78
2022/09/29 11:11:35;;;;;;;2.20;1.52;;;13.90;99.90;;;;;;4973023;28;20053;-79
2022/09/29 11:14:01;;;;;;;2.13;1.67;;;13.70;99.90;;;;;;4988170;28;20041;-80
2022/09/29 11:16:29;;;;;;;1.90;0.98;;;13.80;99.90;;;;;;4990443;28;20038;-82
2022/09/29 11:19:06;;;;;;;1.05;0.57;;;14.00;99.90;;;;;;4988375;28;20050;-87
2022/09/29 11:21:40;;;;;;;4.63;0.82;;;14.00;99.90;;;;;;4987683;28;20046;-86
2022/09/29 11:24:37;;;;;;;1.92;0.85;;;14.10;99.90;;;;;;4989436;28;20133;-87
2022/09/29 11:27:30;;;;;;;2.67;1.02;;;14.20;99.90;;;;;;4983193;28;20051;-83
2022/09/29 11:30:16;;;;;;;3.72;1.63;;;14.40;99.90;;;;;;4989080;28;20069;-85
2022/09/29 11:33:18;;;;;;;1.10;0.90;;;14.60;99.90;;;;;;4972749;28;20454;-81
2022/09/29 11:36:17;;;;;;;1.35;1.23;;;14.50;99.90;;;;;;4967422;28;20073;-78
2022/09/29 11:39:08;;;;;;;0.68;0.60;;;14.60;99.90;;;;;;4971729;28;20054;-82
2022/09/29 11:41:55;;;;;;;1.13;1.02;;;14.70;99.90;;;;;;4970674;28;20052;-78
2022/09/29 11:44:59;;;;;;;2.35;1.17;;;14.80;99.90;;;;;;4988127;28;20047;-85
2022/09/29 11:47:50;;;;;;;0.80;0.50;;;14.60;99.90;;;;;;4972023;28;20057;-82
2022/09/29 11:50:44;;;;;;;0.43;0.20;;;14.40;99.90;;;;;;4984881;28;20556;-84
2022/09/29 11:53:38;;;;;;;;;;;14.20;99.90;;;;;;4969177;28;20050;-83
2022/09/29 11:56:33;;;;;;;0.47;0.20;;;14.00;99.90;;;;;;4974403;28;20271;-85
2022/09/29 11:59:12;;;;;;;1.75;0.52;;;13.90;99.90;;;;;;4988123;28;20054;-82
2022/09/29 12:02:00;;;;;;;0.60;0.57;;;13.80;99.90;;;;;;4971620;28;20125;-86
2022/09/29 12:05:22;;;;;;;1.02;0.45;;;13.70;99.90;;;;;;4971644;28;20454;-81
2022/09/29 12:08:01;;;;;;;5.53;0.70;;;13.60;99.90;;;;;;4967364;28;20463;-85
2022/09/29 12:10:50;;;;;;;1.85;1.17;;;13.60;99.90;;;;;;4990584;28;20524;-82
2022/09/29 12:13:40;;;;;;;2.70;1.10;;;13.50;99.90;;;;;;4971880;28;20042;-78
2022/09/29 12:16:14;;;;;;;1.30;1.20;;;13.50;99.90;;;;;;4987045;28;20038;-79
2022/09/29 12:18:44;;;;;;;1.52;0.98;;;13.40;99.90;;;;;;4988122;28;20111;-81
2022/09/29 12:21:12;;;;;;;1.75;0.80;;;13.40;99.90;;;;;;4987500;28;20060;-83
2022/09/29 12:23:39;;;;;;;1.83;0.68;;;13.40;99.90;;;;;;4986686;28;20096;-85
2022/09/29 12:26:10;;;;;;;0.85;0.70;;;13.40;99.90;;;;;;4989579;28;20074;-79
2022/09/29 12:29:07;;;;;;;1.23;0.70;;;13.60;99.90;;;;;;4989036;28;20089;-84
2022/09/29 12:31:42;;;;;;;1.25;0.60;;;13.70;99.90;;;;;;4988095;28;20050;-85
2022/09/29 12:34:28;;;;;;;1.70;0.98;;;13.40;99.90;;;;;;4987312;28;20442;-79
2022/09/29 12:37:04;;;;;;;2.38;1.00;;;13.70;99.90;;;;;;4952688;28;20047;-81
2022/09/29 12:39:36;;;;;;;1.23;1.08;;;13.60;99.90;;;;;;4984962;28;20043;-82
2022/09/29 12:42:10;;;;;;;1.15;0.93;;;13.60;99.90;;;;;;4971428;28;20050;-79
2022/09/29 12:44:49;;;;;;;2.55;1.17;;;13.50;99.90;;;;;;4987974;28;20046;-76
2022/09/29 12:47:18;;;;;;;2.05;0.82;;;13.50;99.90;;;;;;4987634;28;20482;-83
2022/09/29 12:50:15;;;;;;;1.67;0.80;;;13.50;99.90;;;;;;4988931;28;20136;-80
2022/09/29 12:52:57;;;;;;;3.22;0.88;;;13.50;99.90;;;;;;4990414;28;20034;-84
2022/09/29 12:55:35;;;;;;;0.80;0.80;;;14.90;99.90;;;;;;4987829;28;20038;-83
2022/09/29 12:58:05;;;;;;;2.97;0.60;;;13.70;99.90;;;;;;4986779;28;20428;-83
2022/09/29 13:00:35;;;;;;;2.35;0.57;;;14.60;99.90;;;;;;4992429;28;20042;-84
2022/09/29 13:03:19;;;;;;;2.40;0.30;;;14.00;99.90;;;;;;4975753;28;20039;-80
2022/09/29 13:06:18;;;;;;;0.75;0.20;;;14.00;99.90;;;;;;4990317;28;20042;-85
2022/09/29 13:09:09;;;;;;;0.43;0.30;;;14.00;99.90;;;;;;4975249;28;20097;-86
2022/09/29 13:11:51;;;;;;;1.55;0.15;;;13.90;99.90;;;;;;4990752;28;20367;-83
2022/09/29 13:14:43;;;;;;;0.88;0.20;;;13.90;99.90;;;;;;4990936;28;20073;-82
2022/09/29 13:17:39;;;;;;;1.05;0.20;;;13.90;99.90;;;;;;4973129;28;20147;-86
2022/09/29 13:20:17;;;;;;;0.35;0.20;;;13.80;99.90;;;;;;4987458;28;20048;-84
2022/09/29 13:23:00;;;;;;;0.98;0.10;;;13.70;99.90;;;;;;4989208;28;20051;-85